Terminal Aerodrome Forecast
Issued by NWS

Home | Current Version | Previous Version | Text Only | Print | Product List | Glossary On
Versions: 1 2 3 4 5 6 7 8 9 10 11 12 13 14 15 16 17 18 19
241
FTUS44 KLZK 240724 AAA
TAFHRO
TAF AMD
KHRO 240724Z 2407/2506 16015G30KT P6SM SCT250 WS020/19045KT
     FM241400 17015G25KT P6SM BKN050 BKN250
     FM241900 17015G25KT P6SM VCTS BKN035CB OVC050
      TEMPO 2420/2424 3SM TSRA BR OVC035CB
     FM250000 17012G22KT P6SM VCTS SCT020CB OVC050=

USA.gov is the U.S. government's official web portal to all federal, state and local government web resources and services.